createdAt,value
2023-02-19T00:03:50.791Z,2.56
2023-02-19T00:08:52.786Z,2.47
2023-02-19T00:13:55.876Z,2.37
2023-02-19T00:18:59.632Z,2.39
2023-02-19T00:24:04.472Z,2.46
2023-02-19T00:29:06.115Z,2.46
2023-02-19T00:34:08.221Z,2.44
2023-02-19T00:39:14.158Z,2.45
2023-02-19T00:44:16.198Z,2.54
2023-02-19T00:49:21.189Z,2.68
2023-02-19T00:54:24.032Z,2.76
2023-02-19T00:59:25.867Z,2.80
2023-02-19T01:04:27.444Z,2.80
2023-02-19T01:09:29.020Z,2.78
2023-02-19T01:14:30.493Z,2.84
2023-02-19T01:19:32.015Z,2.93
2023-02-19T01:24:33.891Z,2.95
2023-02-19T01:29:35.479Z,2.93
2023-02-19T01:34:37.029Z,2.92
2023-02-19T01:39:39.611Z,2.90
2023-02-19T01:44:47.203Z,2.97
2023-02-19T01:49:54.657Z,3.05
2023-02-19T01:54:57.644Z,3.07
2023-02-19T02:00:06.045Z,3.08
2023-02-19T02:05:14.322Z,3.03
2023-02-19T02:10:21.741Z,3.02
2023-02-19T02:15:29.306Z,3.08
2023-02-19T02:21:15.562Z,3.17
2023-02-19T02:26:56.212Z,3.18
2023-02-19T02:32:01.976Z,3.16
2023-02-19T02:37:05.484Z,3.15
2023-02-19T02:42:25.799Z,3.10
2023-02-19T02:47:43.745Z,3.05
2023-02-19T02:53:09.716Z,3.03
2023-02-19T02:58:14.219Z,2.98
2023-02-19T03:03:19.756Z,3.00
2023-02-19T03:08:45.372Z,3.13
2023-02-19T03:14:06.147Z,3.20
2023-02-19T03:19:20.551Z,3.18
2023-02-19T03:24:45.802Z,3.13
2023-02-19T03:29:50.412Z,3.08
2023-02-19T03:34:57.847Z,3.05
2023-02-19T03:39:59.647Z,3.09
2023-02-19T03:45:19.701Z,3.13
2023-02-19T03:50:36.965Z,3.14
2023-02-19T03:55:44.681Z,3.14
2023-02-19T04:01:07.204Z,3.11
2023-02-19T04:06:14.249Z,3.04
2023-02-19T04:11:18.720Z,2.99
2023-02-19T04:16:28.503Z,3.05
2023-02-19T04:21:32.422Z,3.13
2023-02-19T04:26:35.715Z,3.16
2023-02-19T04:31:38.856Z,3.11
2023-02-19T04:36:40.374Z,3.05
2023-02-19T04:41:41.942Z,2.97
2023-02-19T04:46:43.424Z,2.94
2023-02-19T04:51:44.887Z,3.02
2023-02-19T04:56:46.415Z,3.04
2023-02-19T05:01:47.920Z,3.02
2023-02-19T05:06:50.177Z,2.97
2023-02-19T05:11:51.744Z,2.90
2023-02-19T05:16:53.296Z,2.83
2023-02-19T05:21:54.820Z,2.75
2023-02-19T05:26:56.353Z,2.69
2023-02-19T05:31:57.993Z,2.74
2023-02-19T05:36:59.509Z,2.83
2023-02-19T05:42:00.996Z,2.85
2023-02-19T05:47:02.468Z,2.85
2023-02-19T05:52:04.414Z,2.83
2023-02-19T05:57:05.934Z,2.80
2023-02-19T06:02:07.448Z,2.77
2023-02-19T06:07:09.359Z,2.82
2023-02-19T06:12:10.832Z,2.90
2023-02-19T06:17:12.413Z,2.93
2023-02-19T06:22:15.619Z,2.93
2023-02-19T06:27:17.290Z,2.91
2023-02-19T06:32:19.385Z,2.90
2023-02-19T06:37:20.949Z,2.93
2023-02-19T06:42:22.924Z,2.92
2023-02-19T06:47:25.479Z,3.03
2023-02-19T06:52:28.093Z,3.16
2023-02-19T06:57:29.640Z,3.22
2023-02-19T07:02:31.169Z,3.29
2023-02-19T07:07:32.745Z,3.33
2023-02-19T07:12:34.243Z,3.38
2023-02-19T07:17:35.978Z,3.36
2023-02-19T07:22:37.504Z,3.42
2023-02-19T07:27:40.201Z,3.53
2023-02-19T07:32:42.676Z,3.62
2023-02-19T07:37:44.207Z,3.62
2023-02-19T07:42:45.852Z,3.62
2023-02-19T07:47:47.350Z,3.65
2023-02-19T07:52:48.834Z,3.61
2023-02-19T07:57:50.443Z,3.74
2023-02-19T08:03:02.008Z,3.83
2023-02-19T08:08:06.596Z,3.88
2023-02-19T08:13:22.472Z,3.89
2023-02-19T08:18:25.177Z,3.98
2023-02-19T08:23:28.566Z,3.97
2023-02-19T08:28:30.588Z,4.12
2023-02-19T08:33:32.410Z,4.38
2023-02-19T08:38:35.957Z,4.44
2023-02-19T08:43:38.088Z,4.46
2023-02-19T08:48:40.606Z,4.46
2023-02-19T08:53:42.284Z,4.39
2023-02-19T08:58:44.713Z,4.36
2023-02-19T09:03:46.283Z,4.42
2023-02-19T09:08:47.751Z,4.59
2023-02-19T09:13:49.291Z,4.65
2023-02-19T09:18:50.771Z,4.73
2023-02-19T09:23:52.441Z,4.76
2023-02-19T09:28:54.940Z,4.86
2023-02-19T09:33:56.421Z,4.90
2023-02-19T09:39:00.393Z,4.84
2023-02-19T09:44:05.004Z,4.63
2023-02-19T09:49:13.948Z,4.57
2023-02-19T09:54:23.460Z,4.51
2023-02-19T09:59:28.667Z,4.40
2023-02-19T10:04:30.199Z,4.39
2023-02-19T10:09:31.755Z,4.44
2023-02-19T10:14:44.648Z,4.66
2023-02-19T10:19:46.360Z,4.70
2023-02-19T10:24:53.047Z,4.61
2023-02-19T10:29:54.661Z,4.74
2023-02-19T10:35:13.880Z,4.98
2023-02-19T10:40:18.149Z,4.90
2023-02-19T10:45:42.959Z,4.71
2023-02-19T10:50:51.324Z,4.76
2023-02-19T10:56:26.770Z,4.90
2023-02-19T11:01:28.481Z,5.06
2023-02-19T11:06:30.178Z,5.19
2023-02-19T11:11:37.543Z,5.24
2023-02-19T11:16:46.417Z,5.14
2023-02-19T11:21:48.049Z,5.23
2023-02-19T11:26:49.641Z,5.24
2023-02-19T11:31:51.655Z,5.18
2023-02-19T11:37:10.223Z,5.18
2023-02-19T11:42:38.581Z,5.16
2023-02-19T11:47:58.963Z,5.38
2023-02-19T11:53:17.485Z,5.66
2023-02-19T11:58:40.133Z,5.75
2023-02-19T12:04:09.844Z,5.81
2023-02-19T12:09:39.355Z,5.69
2023-02-19T12:14:53.026Z,5.64
2023-02-19T12:20:19.945Z,5.61
2023-02-19T12:25:31.791Z,5.63
2023-02-19T12:31:10.712Z,5.57
2023-02-19T12:36:35.640Z,5.49
2023-02-19T12:41:49.124Z,5.28
2023-02-19T12:47:01.629Z,5.08
2023-02-19T12:52:26.131Z,4.93
2023-02-19T12:57:31.738Z,4.94
2023-02-19T13:02:57.698Z,5.08
2023-02-19T13:08:23.738Z,5.39
2023-02-19T13:13:38.469Z,5.70
2023-02-19T13:18:46.007Z,5.84
2023-02-19T13:23:59.657Z,5.93
2023-02-19T13:29:16.375Z,5.82
2023-02-19T13:34:32.448Z,5.56
2023-02-19T13:39:34.519Z,5.35
2023-02-19T13:44:39.974Z,5.21
2023-02-19T13:49:42.288Z,5.12
2023-02-19T13:54:44.045Z,5.07
2023-02-19T13:59:47.184Z,4.93
2023-02-19T14:04:51.972Z,4.82
2023-02-19T14:09:54.949Z,4.85
2023-02-19T14:14:57.753Z,4.86
2023-02-19T14:20:03.096Z,4.79
2023-02-19T14:25:18.955Z,4.67
2023-02-19T14:30:22.453Z,4.56
2023-02-19T14:35:31.169Z,4.47
2023-02-19T14:40:41.662Z,4.46
2023-02-19T14:45:51.982Z,4.50
2023-02-19T14:51:00.441Z,4.53
2023-02-19T14:56:02.070Z,4.60
2023-02-19T15:01:05.937Z,4.62
2023-02-19T15:06:09.080Z,4.62
2023-02-19T15:11:20.790Z,4.57
2023-02-19T15:16:26.032Z,4.50
2023-02-19T15:21:30.648Z,4.44
2023-02-19T15:26:35.931Z,4.41
2023-02-19T15:31:54.462Z,4.38
2023-02-19T15:37:05.518Z,4.33
2023-02-19T15:42:11.181Z,4.27
2023-02-19T15:47:46.694Z,4.25
2023-02-19T15:52:48.246Z,4.24
2023-02-19T15:57:58.562Z,4.19
2023-02-19T16:03:00.733Z,4.12
2023-02-19T16:08:11.386Z,4.05
2023-02-19T16:13:12.923Z,4.00
2023-02-19T16:18:15.313Z,3.97
2023-02-19T16:23:20.852Z,3.93
2023-02-19T16:28:24.924Z,3.88
2023-02-19T16:33:41.803Z,3.83
2023-02-19T16:38:59.572Z,3.73
2023-02-19T16:44:06.696Z,3.62
2023-02-19T16:49:10.192Z,3.54
2023-02-19T16:54:12.725Z,3.48
2023-02-19T16:59:14.241Z,3.39
2023-02-19T17:04:16.284Z,3.30
2023-02-19T17:09:17.852Z,3.22
2023-02-19T17:14:19.555Z,3.18
2023-02-19T17:19:22.381Z,3.19
2023-02-19T17:24:24.773Z,3.23
2023-02-19T17:29:28.442Z,3.27
2023-02-19T17:34:30.163Z,3.27
2023-02-19T17:39:31.698Z,3.24
2023-02-19T17:44:33.212Z,3.20
2023-02-19T17:49:36.378Z,3.11
2023-02-19T17:54:38.015Z,3.05
2023-02-19T17:59:41.225Z,2.97
2023-02-19T18:04:42.839Z,2.91
2023-02-19T18:09:44.548Z,2.85
2023-02-19T18:14:46.649Z,2.79
2023-02-19T18:19:48.300Z,2.73
2023-02-19T18:24:52.877Z,2.69
2023-02-19T18:29:56.740Z,2.63
2023-02-19T18:35:00.157Z,2.56
2023-02-19T18:40:04.908Z,2.48
2023-02-19T18:45:07.091Z,2.39
2023-02-19T18:50:10.857Z,2.30
2023-02-19T18:55:13.848Z,2.24
2023-02-19T19:00:27.540Z,2.20
2023-02-19T19:05:29.153Z,2.13
2023-02-19T19:10:30.962Z,2.06
2023-02-19T19:15:32.552Z,1.99
2023-02-19T19:20:34.109Z,1.91
2023-02-19T19:25:35.688Z,1.88
2023-02-19T19:30:37.896Z,1.83
2023-02-19T19:35:39.528Z,1.76
2023-02-19T19:40:42.398Z,1.70
2023-02-19T19:45:43.891Z,1.64
2023-02-19T19:50:45.376Z,1.57
2023-02-19T19:55:46.925Z,1.53
2023-02-19T20:00:49.244Z,1.50
2023-02-19T20:05:51.347Z,1.46
2023-02-19T20:10:52.936Z,1.43
2023-02-19T20:15:54.564Z,1.40
2023-02-19T20:20:56.374Z,1.39
2023-02-19T20:25:57.881Z,1.35
2023-02-19T20:30:59.404Z,1.28
2023-02-19T20:36:01.010Z,1.21
2023-02-19T20:41:03.028Z,1.16
2023-02-19T20:46:04.902Z,1.11
2023-02-19T20:51:06.468Z,1.06
2023-02-19T20:56:11.521Z,1.00
2023-02-19T21:01:13.325Z,0.95
2023-02-19T21:06:15.013Z,0.90
2023-02-19T21:11:16.933Z,0.83
2023-02-19T21:16:18.563Z,0.77
2023-02-19T21:21:25.198Z,0.73
2023-02-19T21:26:35.724Z,0.67
2023-02-19T21:31:40.327Z,0.63
2023-02-19T21:36:42.443Z,0.56
2023-02-19T21:41:44.037Z,0.50
2023-02-19T21:46:45.542Z,0.48
2023-02-19T21:51:50.423Z,0.45
2023-02-19T21:56:53.551Z,0.41
2023-02-19T22:01:57.540Z,0.38
2023-02-19T22:06:59.230Z,0.31
2023-02-19T22:12:00.755Z,0.27
2023-02-19T22:17:02.297Z,0.24
2023-02-19T22:22:04.161Z,0.22
2023-02-19T22:27:05.718Z,0.20
2023-02-19T22:32:07.422Z,0.18
2023-02-19T22:37:10.282Z,0.16
2023-02-19T22:42:11.836Z,0.15
2023-02-19T22:47:13.401Z,0.20
2023-02-19T22:52:15.127Z,0.36
2023-02-19T22:57:16.652Z,0.44
2023-02-19T23:02:18.150Z,0.47
2023-02-19T23:07:19.722Z,0.47
2023-02-19T23:12:21.213Z,0.43
2023-02-19T23:17:22.678Z,0.42
2023-02-19T23:22:24.661Z,0.44
2023-02-19T23:27:28.402Z,0.51
2023-02-19T23:32:29.931Z,0.57
2023-02-19T23:37:32.166Z,0.64
2023-02-19T23:42:33.715Z,0.71
2023-02-19T23:47:35.221Z,0.78
2023-02-19T23:52:36.752Z,0.84
2023-02-19T23:57:38.249Z,0.93
